Impacts METAR Board
IDs:

KDFW - Dallas-Ft Worth Intl, TX, US

Updated at: 1800 UTC 22 Sep 2018
Potential Impact None Slight Moderate High
Time 22/06Z 22/07Z 22/08Z 22/09Z 22/10Z 22/11Z 22/12Z 22/13Z 22/14Z 22/15Z 22/16Z 22/17Z 22/18Z
Temp73 74 74 74 73 73 73 72 73 74 75 74 73
Dewpt72 73 73 72 72 72 71 71 72 72 73 72 71
Altim29.90 29.88 29.87 29.88 29.88 29.88 29.88 29.88 29.88 29.89 29.89 29.89 29.89
VIS2 4 7 10 4 5 4 1.5 2 5 4 5 10
CIG32 14 14 14 44 75 38 31 3 8 6 8 5
CoverOVCOVCOVCOVCOVCOVCOVCOVCOVCOVCOVCOVCOVC
FltCatIFRMVFRMVFRMVFRMVFRMVFRMVFRIFRLIFRIFRIFRIFRIFR
WX+TSRA BRRA BR-RA--RA BR-RA BR-RA BR+RA BR-RA BR-RA BR-RA BRBR--
WDir90160190160160170130707090310360350
WSpd9 10 6 7 10 10 5 6 3 5 4 12 11
WGst-- -- -- -- -- -- -- -- -- -- -- -- --
Raw hourly METARs
KDFW 220601Z 09009KT 2SM +TSRA BR SCT004 BKN032CB OVC055 23/22 A2990 RMK AO2 LTG DSNT SE AND S OCNL LTGICCG NE-SE TS NE-SE MOV NE P0008 T02280222
KDFW 220703Z COR 16010KT 4SM RA BR SCT004 BKN014 OVC043 23/23 A2988 RMK AO2 LTG DSNT SE AND S TSE02 OCNL LTGIC DSNT NE-SE TS MOVD E CB DSNT NE-SE MOV NE P0005 T02330228
KDFW 220753Z 19006KT 7SM -RA SCT004 BKN014 OVC070 23/23 A2987 RMK AO2 LTG DSNT SE AND S TSE02 SLP106 TS MOVD E P0007 T02330228
KDFW 220853Z 16007KT 10SM FEW007 BKN014 OVC032 23/22 A2988 RMK AO2 RAE18 SLP109 P0001 60170 T02330222 55010
KDFW 220953Z 16010KT 4SM RA BR SCT008 BKN044 OVC075 23/22 A2988 RMK AO2 RAB23 SLP109 P0001 T02280222
KDFW 221053Z 17010KT 5SM -RA BR FEW008 SCT024 OVC075 23/22 A2988 RMK AO2 SLP112 P0009 T02280222
KDFW 221153Z 13005KT 4SM -RA BR FEW008 BKN038 OVC080 23/22 A2988 RMK AO2 SLP112 P0003 60183 70760 T02280217 10233 20228 52001
KDFW 221253Z 07006KT 1 1/2SM +RA BR SCT003 BKN031 OVC065 22/22 A2988 RMK AO2 TWR VIS 2 SLP110 P0008 T02220217
KDFW 221353Z 07003KT 2SM R17C/5500VP6000FT -RA BR BKN003 OVC013 23/22 A2988 RMK AO2 SLP111 P0039 T02280222
KDFW 221453Z 09005KT 5SM -RA BR FEW004 BKN008 OVC013 23/22 A2989 RMK AO2 SLP114 P0001 60048 T02330222 53002 $
KDFW 221553Z 31004KT 4SM R17C/6000VP6000FT -RA BR BKN006 OVC012 24/23 A2989 RMK AO2 SLP115 VIS N 2 P0003 T02390228 $
KDFW 221653Z 36012KT 5SM BR FEW004 BKN008 OVC015 23/22 A2989 RMK AO2 RAE00 SLP115 P0000 T02330222 $
KDFW 221753Z 35011KT 10SM BKN005 OVC011 23/22 A2989 RMK AO2 RAB09E53 SLP113 BKN V SCT P0000 60051 T02280217 10244 20222 58001 $



Page loaded:  18:25 UTC  |   11:25 AM Pacific  |   12:25 PM Mountain  |   01:25 PM Central  |   02:25 PM Eastern

 

ADVISORIES

FORECASTS

FORECASTS

OBSERVATIONS

USER TOOLS

ABOUT US